TimePDT,TemperatureF,Dew PointF,Humidity,Sea Level PressureIn,VisibilityMPH,Wind Direction,Wind SpeedMPH,Gust SpeedMPH,PrecipitationIn,Events,Conditions,WindDirDegrees,DateUTC
12:52 AM,52.0,28.0,40,29.95,10.0,NE,4.6,-,N/A,,Clear,40,2013-03-24 07:52:00
1:52 AM,52.0,26.1,37,29.96,10.0,Calm,Calm,-,N/A,,Clear,0,2013-03-24 08:52:00
2:52 AM,51.1,28.0,41,29.95,10.0,NW,4.6,-,N/A,,Clear,320,2013-03-24 09:52:00
3:52 AM,46.9,26.1,44,29.94,10.0,NNE,4.6,-,N/A,,Clear,30,2013-03-24 10:52:00
4:52 AM,50.0,23.0,35,29.95,10.0,NNW,6.9,-,N/A,,Clear,340,2013-03-24 11:52:00
5:52 AM,46.9,28.9,50,29.96,10.0,Calm,Calm,-,N/A,,Clear,0,2013-03-24 12:52:00
6:52 AM,50.0,23.0,35,29.97,10.0,North,6.9,-,N/A,,Clear,360,2013-03-24 13:52:00
7:52 AM,55.9,26.1,32,29.98,10.0,NNW,4.6,-,N/A,,Clear,340,2013-03-24 14:52:00
8:52 AM,64.0,21.9,20,30.00,10.0,NNW,4.6,-,N/A,,Clear,340,2013-03-24 15:52:00
9:52 AM,71.1,23.0,16,29.99,10.0,NNW,3.5,-,N/A,,Clear,330,2013-03-24 16:52:00
10:52 AM,75.0,17.1,11,29.98,10.0,Variable,3.5,-,N/A,,Clear,0,2013-03-24 17:52:00
11:52 AM,78.1,16.0,10,29.96,10.0,Calm,Calm,-,N/A,,Clear,0,2013-03-24 18:52:00
12:52 PM,82.0,12.9,7,29.94,10.0,ENE,4.6,-,N/A,,Clear,70,2013-03-24 19:52:00
1:52 PM,84.0,12.0,7,29.90,10.0,SSE,5.8,-,N/A,,Clear,150,2013-03-24 20:52:00
2:52 PM,84.0,12.9,7,29.87,10.0,SSE,6.9,17.3,N/A,,Clear,150,2013-03-24 21:52:00
3:52 PM,82.9,15.1,8,29.86,10.0,SSE,10.4,-,N/A,,Clear,150,2013-03-24 22:52:00
4:52 PM,82.0,17.1,9,29.84,10.0,SE,10.4,-,N/A,,Clear,140,2013-03-24 23:52:00
5:52 PM,80.1,17.1,9,29.83,10.0,SE,9.2,-,N/A,,Clear,130,2013-03-25 00:52:00
6:52 PM,73.0,25.0,17,29.83,10.0,ESE,5.8,-,N/A,,Clear,120,2013-03-25 01:52:00
7:52 PM,62.1,25.0,24,29.84,10.0,SW,3.5,-,N/A,,Clear,230,2013-03-25 02:52:00
8:52 PM,59.0,28.0,31,29.87,10.0,SSW,3.5,-,N/A,,Clear,210,2013-03-25 03:52:00
9:52 PM,54.0,28.0,37,29.88,10.0,Calm,Calm,-,N/A,,Clear,0,2013-03-25 04:52:00
10:52 PM,54.0,30.9,41,29.89,10.0,NNW,3.5,-,N/A,,Clear,340,2013-03-25 05:52:00
11:52 PM,55.9,28.9,36,29.90,10.0,NNW,5.8,-,N/A,,Clear,340,2013-03-25 06:52:00